createdAt,value
2022-12-19T00:01:36.785Z,8.93
2022-12-19T00:04:09.407Z,8.60
2022-12-19T00:06:37.995Z,8.70
2022-12-19T00:09:10.447Z,8.40
2022-12-19T00:11:38.870Z,9.02
2022-12-19T00:14:06.212Z,8.70
2022-12-19T00:16:33.246Z,9.07
2022-12-19T00:19:00.967Z,8.18
2022-12-19T00:21:29.628Z,8.45
2022-12-19T00:23:56.752Z,9.13
2022-12-19T00:26:26.589Z,8.93
2022-12-19T00:28:55.144Z,8.32
2022-12-19T00:31:24.998Z,9.52
2022-12-19T00:33:51.965Z,9.00
2022-12-19T00:36:38.970Z,9.43
2022-12-19T00:39:08.388Z,9.23
2022-12-19T00:41:37.267Z,9.18
2022-12-19T00:44:10.245Z,9.23
2022-12-19T00:46:37.384Z,10.70
2022-12-19T00:49:04.974Z,9.23
2022-12-19T00:51:33.866Z,9.40
2022-12-19T00:54:01.535Z,10.30
2022-12-19T00:56:37.269Z,10.48
2022-12-19T00:59:05.474Z,9.25
2022-12-19T01:01:38.026Z,9.20
2022-12-19T01:06:53.489Z,9.95
2022-12-19T01:09:21.928Z,9.38
2022-12-19T01:12:07.326Z,9.68
2022-12-19T01:14:34.405Z,9.32
2022-12-19T01:17:01.132Z,10.05
2022-12-19T01:19:28.383Z,9.35
2022-12-19T01:21:55.238Z,10.15
2022-12-19T01:24:22.289Z,10.25
2022-12-19T01:26:49.060Z,9.63
2022-12-19T01:29:15.780Z,10.25
2022-12-19T01:31:42.627Z,11.15
2022-12-19T01:34:09.494Z,10.98
2022-12-19T01:36:40.228Z,10.85
2022-12-19T01:39:07.638Z,10.18
2022-12-19T01:41:34.597Z,11.25
2022-12-19T01:44:02.286Z,11.32
2022-12-19T01:46:50.664Z,11.13
2022-12-19T01:49:29.362Z,10.95
2022-12-19T01:51:59.106Z,11.25
2022-12-19T01:54:31.835Z,11.40
2022-12-19T01:56:59.441Z,12.18
2022-12-19T01:59:30.041Z,12.25
2022-12-19T02:02:02.264Z,11.98
2022-12-19T02:04:32.539Z,12.52
2022-12-19T02:07:00.135Z,12.50
2022-12-19T02:09:34.354Z,11.63
2022-12-19T02:12:01.275Z,12.10
2022-12-19T02:14:28.313Z,11.63
2022-12-19T02:17:03.354Z,11.93
2022-12-19T02:20:29.425Z,11.90
2022-12-19T02:23:36.540Z,11.48
2022-12-19T02:26:53.893Z,12.23
2022-12-19T02:29:30.494Z,12.23
2022-12-19T02:32:21.697Z,11.43
2022-12-19T02:35:08.471Z,12.65
2022-12-19T02:37:39.386Z,11.70
2022-12-19T02:40:11.145Z,12.48
2022-12-19T02:42:44.375Z,12.70
2022-12-19T02:45:22.758Z,12.70
2022-12-19T02:47:56.289Z,12.95
2022-12-19T02:50:23.341Z,12.30
2022-12-19T02:52:50.187Z,13.18
2022-12-19T02:55:20.814Z,12.57
2022-12-19T02:58:09.820Z,12.90
2022-12-19T03:00:42.778Z,13.23
2022-12-19T03:03:15.772Z,12.63
2022-12-19T03:06:09.097Z,12.80
2022-12-19T03:08:47.955Z,12.80
2022-12-19T03:11:15.762Z,12.95
2022-12-19T03:13:54.719Z,13.75
2022-12-19T03:16:21.571Z,13.38
2022-12-19T03:18:48.478Z,13.55
2022-12-19T03:21:22.424Z,13.95
2022-12-19T03:23:51.128Z,13.27
2022-12-19T03:26:22.164Z,13.23
2022-12-19T03:28:54.379Z,13.43
2022-12-19T03:31:23.854Z,14.13
2022-12-19T03:33:55.934Z,14.13
2022-12-19T03:36:28.066Z,14.30
2022-12-19T03:38:56.237Z,14.18
2022-12-19T03:41:45.086Z,13.13
2022-12-19T03:44:14.311Z,13.90
2022-12-19T03:46:44.021Z,13.88
2022-12-19T03:49:10.961Z,13.90
2022-12-19T03:52:16.505Z,14.05
2022-12-19T03:54:52.530Z,13.50
2022-12-19T03:57:52.983Z,13.98
2022-12-19T04:00:20.887Z,13.75
2022-12-19T04:02:50.277Z,14.23
2022-12-19T04:05:25.698Z,14.57
2022-12-19T04:07:55.600Z,14.30
2022-12-19T04:10:25.191Z,14.35
2022-12-19T04:12:56.649Z,15.10
2022-12-19T04:15:32.366Z,15.35
2022-12-19T04:18:00.206Z,15.13
2022-12-19T04:20:27.697Z,15.50
2022-12-19T04:23:00.454Z,14.48
2022-12-19T04:25:32.831Z,15.38
2022-12-19T04:28:06.770Z,14.70
2022-12-19T04:30:36.493Z,15.02
2022-12-19T04:33:04.235Z,15.95
2022-12-19T04:35:31.884Z,15.07
2022-12-19T04:37:58.770Z,14.85
2022-12-19T04:40:25.579Z,14.18
2022-12-19T04:42:52.449Z,14.77
2022-12-19T04:45:19.281Z,15.75
2022-12-19T04:47:46.079Z,15.32
2022-12-19T04:50:12.979Z,15.63
2022-12-19T04:52:39.978Z,15.50
2022-12-19T04:55:07.813Z,15.45
2022-12-19T04:57:34.578Z,15.15
2022-12-19T05:00:04.009Z,14.13
2022-12-19T05:02:31.190Z,14.75
2022-12-19T05:04:58.132Z,15.35
2022-12-19T05:07:24.906Z,15.68
2022-12-19T05:09:51.610Z,16.08
2022-12-19T05:12:18.471Z,15.20
2022-12-19T05:14:45.854Z,16.17
2022-12-19T05:17:12.688Z,15.82
2022-12-19T05:19:39.431Z,15.43
2022-12-19T05:22:06.301Z,15.65
2022-12-19T05:24:33.132Z,16.65
2022-12-19T05:27:00.267Z,15.52
2022-12-19T05:29:27.101Z,16.52
2022-12-19T05:31:53.955Z,15.13
2022-12-19T05:34:20.936Z,17.02
2022-12-19T05:36:47.668Z,16.10
2022-12-19T05:39:14.483Z,15.90
2022-12-19T05:41:41.638Z,15.45
2022-12-19T05:44:09.687Z,17.25
2022-12-19T05:46:36.713Z,15.70
2022-12-19T05:49:03.635Z,15.95
2022-12-19T05:51:31.050Z,16.45
2022-12-19T05:53:57.805Z,15.77
2022-12-19T05:56:24.654Z,15.98
2022-12-19T05:58:51.816Z,15.00
2022-12-19T06:01:21.495Z,15.82
2022-12-19T06:03:49.364Z,16.05
2022-12-19T06:06:18.993Z,17.02
2022-12-19T06:08:45.954Z,16.25
2022-12-19T06:11:14.068Z,16.00
2022-12-19T06:13:41.473Z,15.88
2022-12-19T06:16:13.138Z,17.00
2022-12-19T06:18:44.713Z,16.98
2022-12-19T06:21:20.301Z,17.75
2022-12-19T06:23:47.544Z,16.08
2022-12-19T06:26:19.395Z,16.05
2022-12-19T06:28:48.195Z,17.33
2022-12-19T06:31:15.984Z,16.83
2022-12-19T06:33:42.825Z,17.65
2022-12-19T06:36:16.953Z,17.30
2022-12-19T06:41:29.915Z,17.23
2022-12-19T06:44:06.552Z,16.52
2022-12-19T06:46:33.886Z,17.50
2022-12-19T06:49:01.533Z,15.98
2022-12-19T06:51:29.057Z,18.00
2022-12-19T06:53:56.036Z,17.13
2022-12-19T06:56:23.175Z,17.95
2022-12-19T06:58:50.672Z,17.70
2022-12-19T07:01:41.218Z,17.85
2022-12-19T07:04:09.717Z,18.17
2022-12-19T07:06:36.621Z,18.33
2022-12-19T07:09:03.399Z,17.58
2022-12-19T07:11:30.143Z,18.83
2022-12-19T07:13:56.901Z,18.08
2022-12-19T07:16:24.690Z,17.40
2022-12-19T07:18:51.570Z,18.80
2022-12-19T07:21:18.407Z,18.80
2022-12-19T07:23:45.416Z,17.63
2022-12-19T07:26:12.502Z,17.20
2022-12-19T07:28:39.637Z,18.33
2022-12-19T07:31:06.446Z,18.98
2022-12-19T07:33:34.077Z,17.40
2022-12-19T07:36:00.867Z,18.80
2022-12-19T07:38:27.697Z,18.65
2022-12-19T07:40:54.429Z,18.23
2022-12-19T07:43:21.260Z,19.17
2022-12-19T07:45:54.658Z,18.48
2022-12-19T07:48:21.526Z,19.08
2022-12-19T07:50:49.262Z,18.75
2022-12-19T07:53:16.688Z,18.48
2022-12-19T07:55:43.518Z,18.63
2022-12-19T07:58:11.292Z,19.05
2022-12-19T08:00:38.428Z,18.38
2022-12-19T08:03:05.323Z,18.02
2022-12-19T08:05:34.846Z,18.63
2022-12-19T08:08:01.672Z,17.73
2022-12-19T08:10:28.520Z,18.80
2022-12-19T08:12:55.626Z,18.50
2022-12-19T08:15:22.566Z,19.38
2022-12-19T08:17:49.557Z,18.38
2022-12-19T08:20:16.379Z,19.58
2022-12-19T08:22:43.438Z,19.30
2022-12-19T08:25:10.369Z,19.55
2022-12-19T08:27:37.909Z,19.38
2022-12-19T08:30:05.687Z,20.33
2022-12-19T08:32:32.854Z,19.70
2022-12-19T08:34:59.872Z,19.10
2022-12-19T08:37:26.804Z,19.58
2022-12-19T08:39:53.565Z,20.02
2022-12-19T08:42:20.341Z,19.55
2022-12-19T08:44:47.130Z,19.38
2022-12-19T08:47:14.176Z,20.42
2022-12-19T08:49:41.350Z,19.98
2022-12-19T08:52:08.207Z,20.13
2022-12-19T08:54:35.181Z,21.20
2022-12-19T08:57:01.929Z,19.92
2022-12-19T08:59:31.830Z,20.75
2022-12-19T09:02:00.877Z,20.95
2022-12-19T09:06:00.267Z,21.27
2022-12-19T09:07:16.292Z,20.08
2022-12-19T09:09:44.329Z,24.13
2022-12-19T09:12:13.022Z,28.67
2022-12-19T09:14:39.839Z,33.15
2022-12-19T09:17:06.860Z,37.45
2022-12-19T09:19:33.885Z,26.48
2022-12-19T09:22:00.657Z,25.50
2022-12-19T09:24:27.563Z,22.98
2022-12-19T09:26:54.421Z,22.17
2022-12-19T09:29:21.977Z,22.63
2022-12-19T09:31:55.412Z,26.30
2022-12-19T09:34:36.900Z,23.27
2022-12-19T09:37:16.087Z,22.25
2022-12-19T09:39:45.401Z,29.17
2022-12-19T09:42:21.654Z,24.92
2022-12-19T09:45:05.927Z,21.45
2022-12-19T09:47:34.949Z,24.55
2022-12-19T09:50:02.130Z,24.30
2022-12-19T09:52:44.037Z,25.85
2022-12-19T09:55:25.126Z,25.15
2022-12-19T09:57:59.833Z,23.27
2022-12-19T10:00:35.466Z,24.42
2022-12-19T10:03:14.381Z,23.27
2022-12-19T10:07:06.790Z,23.15
2022-12-19T10:09:17.094Z,22.60
2022-12-19T10:12:47.795Z,26.63
2022-12-19T10:15:12.534Z,23.40
2022-12-19T10:18:27.067Z,22.70
2022-12-19T10:21:37.025Z,22.55
2022-12-19T10:24:38.347Z,21.33
2022-12-19T10:27:36.559Z,21.60
2022-12-19T10:30:16.917Z,21.15
2022-12-19T10:33:25.649Z,21.88
2022-12-19T10:36:02.218Z,22.65
2022-12-19T10:38:35.071Z,30.80
2022-12-19T10:44:08.127Z,23.10
2022-12-19T10:54:51.597Z,23.48
2022-12-19T10:57:28.472Z,25.02
2022-12-19T11:00:05.076Z,25.15
2022-12-19T11:02:41.491Z,25.73
2022-12-19T11:05:30.902Z,23.73
2022-12-19T11:08:14.971Z,22.20
2022-12-19T11:12:25.266Z,28.40
2022-12-19T11:18:09.784Z,23.42
2022-12-19T11:22:13.539Z,24.02
2022-12-19T11:29:26.119Z,22.95
2022-12-19T11:29:53.409Z,25.20
2022-12-19T11:30:09.085Z,23.75
2022-12-19T11:30:38.459Z,24.23
2022-12-19T11:32:31.510Z,22.63
2022-12-19T11:34:19.102Z,23.02
2022-12-19T11:37:16.267Z,23.55
2022-12-19T11:39:47.972Z,23.33
2022-12-19T11:42:26.160Z,24.05
2022-12-19T11:45:01.724Z,27.23
2022-12-19T11:47:38.811Z,23.85
2022-12-19T11:50:27.728Z,26.75
2022-12-19T11:53:24.055Z,26.58
2022-12-19T11:56:16.276Z,27.63
2022-12-19T11:58:49.211Z,25.40
2022-12-19T12:01:43.584Z,24.80
2022-12-19T12:04:29.061Z,24.63
2022-12-19T12:06:56.919Z,23.58
2022-12-19T12:13:47.757Z,22.90
2022-12-19T12:20:18.504Z,24.60
2022-12-19T12:25:13.488Z,24.67
2022-12-19T12:31:15.116Z,23.70
2022-12-19T12:31:26.509Z,23.98
2022-12-19T12:31:53.469Z,23.77
2022-12-19T12:32:02.054Z,23.67
2022-12-19T12:38:37.164Z,23.20
2022-12-19T12:41:42.387Z,23.50
2022-12-19T12:44:12.036Z,23.20
2022-12-19T12:47:22.210Z,23.58
2022-12-19T12:50:01.255Z,24.35
2022-12-19T12:52:39.836Z,24.40
2022-12-19T12:55:15.848Z,24.58
2022-12-19T12:57:42.713Z,23.17
2022-12-19T13:00:20.533Z,24.13
2022-12-19T13:02:54.466Z,24.20
2022-12-19T13:08:01.285Z,22.30
2022-12-19T13:10:30.583Z,23.17
2022-12-19T13:13:14.604Z,23.40
2022-12-19T13:15:46.140Z,24.85
2022-12-19T13:18:16.159Z,23.98
2022-12-19T13:20:46.200Z,23.85
2022-12-19T13:23:58.231Z,24.92
2022-12-19T13:26:46.727Z,23.75
2022-12-19T13:29:28.098Z,23.50
2022-12-19T13:32:12.832Z,23.63
2022-12-19T13:34:41.575Z,24.05
2022-12-19T13:39:55.755Z,24.27
2022-12-19T13:40:33.476Z,26.40
2022-12-19T13:43:48.095Z,29.13
2022-12-19T13:46:45.091Z,22.87
2022-12-19T13:49:17.778Z,24.40
2022-12-19T13:51:52.500Z,23.83
2022-12-19T13:54:26.155Z,22.00
2022-12-19T13:56:53.871Z,22.27
2022-12-19T13:59:22.788Z,23.80
2022-12-19T14:01:51.478Z,23.48
2022-12-19T14:04:32.504Z,22.95
2022-12-19T14:07:04.701Z,23.27
2022-12-19T14:11:28.879Z,23.65
2022-12-19T14:13:46.228Z,23.15
2022-12-19T14:15:41.690Z,22.58
2022-12-19T14:18:42.754Z,21.50
2022-12-19T14:22:10.961Z,22.15
2022-12-19T14:24:24.423Z,22.98
2022-12-19T14:28:24.278Z,24.00
2022-12-19T14:30:27.558Z,23.17
2022-12-19T14:33:43.767Z,22.02
2022-12-19T14:36:06.158Z,22.98
2022-12-19T14:39:21.194Z,21.15
2022-12-19T14:41:08.223Z,22.95
2022-12-19T14:43:59.059Z,24.15
2022-12-19T14:54:08.628Z,23.27
2022-12-19T14:54:09.038Z,23.77
2022-12-19T14:54:50.452Z,23.45
2022-12-19T14:56:13.131Z,21.92
2022-12-19T14:58:56.225Z,22.98
2022-12-19T15:01:36.567Z,22.50
2022-12-19T15:04:48.163Z,23.83
2022-12-19T15:07:08.033Z,23.20
2022-12-19T15:11:00.283Z,23.40
2022-12-19T15:14:54.652Z,24.77
2022-12-19T15:16:06.299Z,25.20
2022-12-19T15:18:42.870Z,27.63
2022-12-19T15:21:14.656Z,27.77
2022-12-19T15:23:42.292Z,26.15
2022-12-19T15:26:16.164Z,26.45
2022-12-19T15:28:53.550Z,24.90
2022-12-19T15:31:40.044Z,22.67
2022-12-19T15:34:48.374Z,23.00
2022-12-19T15:37:15.519Z,22.13
2022-12-19T15:39:43.475Z,23.05
2022-12-19T15:42:22.933Z,23.67
2022-12-19T15:44:50.109Z,24.05
2022-12-19T15:47:20.007Z,26.05
2022-12-19T15:49:47.364Z,27.05
2022-12-19T15:52:19.136Z,29.00
2022-12-19T15:54:48.556Z,27.15
2022-12-19T15:57:42.229Z,26.38
2022-12-19T16:00:32.296Z,24.98
2022-12-19T16:03:22.898Z,25.25
2022-12-19T16:05:51.789Z,26.52
2022-12-19T16:08:21.073Z,24.77
2022-12-19T16:10:56.014Z,22.52
2022-12-19T16:13:31.085Z,23.77
2022-12-19T16:15:58.331Z,23.35
2022-12-19T16:18:25.315Z,23.67
2022-12-19T16:20:52.191Z,26.23
2022-12-19T16:23:19.718Z,25.75
2022-12-19T16:25:50.684Z,33.85
2022-12-19T16:28:26.935Z,28.85
2022-12-19T16:30:56.639Z,35.47
2022-12-19T16:33:25.780Z,34.30
2022-12-19T16:36:03.942Z,33.97
2022-12-19T16:38:31.385Z,35.90
2022-12-19T16:40:58.246Z,31.88
2022-12-19T16:43:36.393Z,32.72
2022-12-19T16:46:06.112Z,32.45
2022-12-19T16:48:35.860Z,30.13
2022-12-19T16:51:03.027Z,26.42
2022-12-19T16:53:30.059Z,28.15
2022-12-19T16:55:57.652Z,26.50
2022-12-19T16:58:26.975Z,26.48
2022-12-19T17:00:57.454Z,27.20
2022-12-19T17:03:36.524Z,25.88
2022-12-19T17:06:04.106Z,26.55
2022-12-19T17:08:32.541Z,26.50
2022-12-19T17:10:59.395Z,25.83
2022-12-19T17:13:26.546Z,26.55
2022-12-19T17:15:57.057Z,26.02
2022-12-19T17:18:28.837Z,25.45
2022-12-19T17:20:55.667Z,24.10
2022-12-19T17:23:24.100Z,26.23
2022-12-19T17:25:51.170Z,25.42
2022-12-19T17:28:18.367Z,26.35
2022-12-19T17:30:50.220Z,25.08
2022-12-19T17:33:17.649Z,24.98
2022-12-19T17:35:45.152Z,25.65
2022-12-19T17:38:17.251Z,39.58
2022-12-19T17:40:44.169Z,33.22
2022-12-19T17:43:12.800Z,31.65
2022-12-19T17:45:39.782Z,30.67
2022-12-19T17:48:14.894Z,29.48
2022-12-19T17:50:42.153Z,27.30
2022-12-19T17:53:14.154Z,28.58
2022-12-19T17:55:41.859Z,27.88
2022-12-19T17:58:10.197Z,28.10
2022-12-19T18:00:37.418Z,28.95
2022-12-19T18:03:16.911Z,27.27
2022-12-19T18:05:43.935Z,29.45
2022-12-19T18:08:43.255Z,28.80
2022-12-19T18:11:28.357Z,27.55
2022-12-19T18:13:55.334Z,27.77
2022-12-19T18:16:27.272Z,27.98
2022-12-19T18:18:54.387Z,27.38
2022-12-19T18:21:24.388Z,27.63
2022-12-19T18:23:54.183Z,27.52
2022-12-19T18:26:20.870Z,26.60
2022-12-19T18:28:48.003Z,26.27
2022-12-19T18:31:26.067Z,25.38
2022-12-19T18:33:54.434Z,27.35
2022-12-19T18:36:22.871Z,26.85
2022-12-19T18:38:50.153Z,26.38
2022-12-19T18:41:18.318Z,29.38
2022-12-19T18:43:45.638Z,27.88
2022-12-19T18:46:15.339Z,27.60
2022-12-19T18:48:44.082Z,28.75
2022-12-19T18:51:19.238Z,28.27
2022-12-19T18:53:46.692Z,28.60
2022-12-19T18:56:13.771Z,28.10
2022-12-19T18:58:40.910Z,27.52
2022-12-19T19:01:12.995Z,27.65
2022-12-19T19:03:40.534Z,30.90
2022-12-19T19:06:18.616Z,29.20
2022-12-19T19:08:45.769Z,28.60
2022-12-19T19:11:12.786Z,29.48
2022-12-19T19:13:39.472Z,27.75
2022-12-19T19:16:20.981Z,28.15
2022-12-19T19:18:51.472Z,28.90
2022-12-19T19:21:19.321Z,28.05
2022-12-19T19:23:50.019Z,28.95
2022-12-19T19:26:16.762Z,28.83
2022-12-19T19:28:48.573Z,26.98
2022-12-19T19:31:20.523Z,28.00
2022-12-19T19:33:51.192Z,29.42
2022-12-19T19:36:20.961Z,31.08
2022-12-19T19:38:50.368Z,30.73
2022-12-19T19:41:21.284Z,31.48
2022-12-19T19:43:48.017Z,40.03
2022-12-19T19:46:14.922Z,38.85
2022-12-19T19:48:42.835Z,36.10
2022-12-19T19:51:09.701Z,31.77
2022-12-19T19:53:36.565Z,31.38
2022-12-19T19:56:05.047Z,29.33
2022-12-19T19:58:32.331Z,29.55
2022-12-19T20:00:59.163Z,29.80
2022-12-19T20:03:26.560Z,28.55
2022-12-19T20:06:02.258Z,26.40
2022-12-19T20:08:36.855Z,27.55
2022-12-19T20:11:06.079Z,26.50
2022-12-19T20:13:33.183Z,27.48
2022-12-19T20:16:11.844Z,26.13
2022-12-19T20:18:41.582Z,26.42
2022-12-19T20:21:12.961Z,25.85
2022-12-19T20:23:41.148Z,25.85
2022-12-19T20:26:08.303Z,26.65
2022-12-19T20:28:35.204Z,25.90
2022-12-19T20:31:02.096Z,26.83
2022-12-19T20:33:28.931Z,26.60
2022-12-19T20:35:57.069Z,25.65
2022-12-19T20:38:24.395Z,25.15
2022-12-19T20:40:56.075Z,25.38
2022-12-19T20:43:23.707Z,25.83
2022-12-19T20:45:50.802Z,25.98
2022-12-19T20:48:17.917Z,26.73
2022-12-19T20:50:44.876Z,27.42
2022-12-19T20:53:11.819Z,25.35
2022-12-19T20:55:38.623Z,26.42
2022-12-19T20:58:05.395Z,25.70
2022-12-19T21:00:32.339Z,25.52
2022-12-19T21:03:27.206Z,26.67
2022-12-19T21:05:53.771Z,25.15
2022-12-19T21:08:24.658Z,24.95
2022-12-19T21:10:51.625Z,25.85
2022-12-19T21:13:18.444Z,25.33
2022-12-19T21:15:45.564Z,25.85
2022-12-19T21:18:12.531Z,25.05
2022-12-19T21:20:39.335Z,27.35
2022-12-19T21:23:06.075Z,25.70
2022-12-19T21:25:32.803Z,25.77
2022-12-19T21:27:59.613Z,26.13
2022-12-19T21:30:26.336Z,25.95
2022-12-19T21:32:53.041Z,26.50
2022-12-19T21:35:19.744Z,24.77
2022-12-19T21:37:50.278Z,25.58
2022-12-19T21:40:20.566Z,25.58
2022-12-19T21:42:47.695Z,24.88
2022-12-19T21:45:15.240Z,24.77
2022-12-19T21:47:43.211Z,24.83
2022-12-19T21:50:12.589Z,23.77
2022-12-19T21:52:39.385Z,23.55
2022-12-19T21:55:07.526Z,24.75
2022-12-19T21:57:38.956Z,24.80
2022-12-19T22:00:07.479Z,24.98
2022-12-19T22:02:34.442Z,23.10
2022-12-19T22:05:01.441Z,25.13
2022-12-19T22:07:28.186Z,24.63
2022-12-19T22:09:55.740Z,25.85
2022-12-19T22:12:22.455Z,25.15
2022-12-19T22:14:49.160Z,25.83
2022-12-19T22:17:16.009Z,26.00
2022-12-19T22:19:42.829Z,25.52
2022-12-19T22:22:09.503Z,24.83
2022-12-19T22:24:36.527Z,25.40
2022-12-19T22:27:03.213Z,25.63
2022-12-19T22:29:30.071Z,25.90
2022-12-19T22:31:56.874Z,26.25
2022-12-19T22:34:23.574Z,25.67
2022-12-19T22:36:50.345Z,26.63
2022-12-19T22:39:19.225Z,25.98
2022-12-19T22:41:46.241Z,25.48
2022-12-19T22:44:19.251Z,26.63
2022-12-19T22:46:46.339Z,26.15
2022-12-19T22:49:14.180Z,26.88
2022-12-19T22:51:41.547Z,25.83
2022-12-19T22:54:08.445Z,25.95
2022-12-19T22:56:35.684Z,25.80
2022-12-19T22:59:05.531Z,26.90
2022-12-19T23:01:38.794Z,27.20
2022-12-19T23:04:07.196Z,26.88
2022-12-19T23:06:35.908Z,27.25
2022-12-19T23:09:03.724Z,26.67
2022-12-19T23:11:36.720Z,25.90
2022-12-19T23:14:08.194Z,25.73
2022-12-19T23:16:35.344Z,25.92
2022-12-19T23:19:02.741Z,26.25
2022-12-19T23:21:30.842Z,25.40
2022-12-19T23:23:57.559Z,25.63
2022-12-19T23:26:30.450Z,24.33
2022-12-19T23:29:02.477Z,26.63
2022-12-19T23:31:30.087Z,25.02
2022-12-19T23:33:57.610Z,24.85
2022-12-19T23:36:52.695Z,25.85
2022-12-19T23:39:12.074Z,25.20
2022-12-19T23:41:39.581Z,25.05
2022-12-19T23:44:08.888Z,25.05
2022-12-19T23:46:38.725Z,24.45
2022-12-19T23:49:05.882Z,24.45
2022-12-19T23:51:32.956Z,23.95
2022-12-19T23:53:59.691Z,24.83
2022-12-19T23:56:28.782Z,24.95
2022-12-19T23:58:55.866Z,23.50
